Time;durP1;ratioP1;P1;durP2;ratioP2;P2;SDS_P1;SDS_P2;PMS_P1;PMS_P2;Temp;Humidity;BMP_temperature;BMP_pressure;BME280_temperature;BME280_humidity;BME280_pressure;Samples;Min_cycle;Max_cycle;Signal;HPM_P1;HPM_P2
2021/07/18 00:02:01;;;;;;;23.15;21.05;;;18.20;99.90;;;19.15;100.00;98311.88;5215771;28;20197;-63
2021/07/18 00:04:35;;;;;;;26.70;22.80;;;18.10;99.90;;;19.10;100.00;98300.47;5205636;28;20255;-63
2021/07/18 00:07:08;;;;;;;23.33;20.95;;;18.10;99.90;;;19.05;100.00;98302.91;5205058;28;20317;-63
2021/07/18 00:09:41;;;;;;;23.65;21.35;;;18.10;99.90;;;19.03;100.00;98303.69;5204979;28;20200;-63
2021/07/18 00:12:15;;;;;;;22.92;20.65;;;18.10;99.90;;;18.99;100.00;98297.56;5214856;28;20197;-63
2021/07/18 00:14:48;;;;;;;24.20;21.40;;;18.00;99.90;;;19.02;100.00;98296.78;5221498;28;20193;-63
2021/07/18 00:17:23;;;;;;;24.40;22.10;;;18.00;99.90;;;18.96;100.00;98289.69;5224805;28;20203;-63
2021/07/18 00:19:56;;;;;;;21.50;19.48;;;18.00;99.90;;;18.97;100.00;98293.16;5226048;28;20220;-63
2021/07/18 00:22:29;;;;;;;29.80;23.33;;;17.90;99.90;;;18.94;100.00;98293.06;5213130;28;20211;-63
2021/07/18 00:25:04;;;;;;;23.55;21.50;;;17.90;99.90;;;18.90;100.00;98287.78;5210016;28;20198;-63
2021/07/18 00:27:37;;;;;;;26.25;22.65;;;17.90;99.90;;;18.89;100.00;98290.34;5213193;28;20197;-63
2021/07/18 00:30:12;;;;;;;31.95;23.33;;;17.90;99.90;;;18.79;100.00;98289.16;5225046;28;20200;-63
2021/07/18 00:32:47;;;;;;;22.52;20.35;;;17.90;99.90;;;18.84;100.00;98290.19;5228628;28;20242;-63
2021/07/18 00:35:20;;;;;;;22.83;20.33;;;17.90;99.90;;;18.87;100.00;98295.47;5229565;28;20718;-63
2021/07/18 00:37:53;;;;;;;38.17;22.38;;;17.80;99.90;;;18.85;100.00;98301.44;5217517;28;20208;-63
2021/07/18 00:40:26;;;;;;;86.15;24.65;;;17.80;99.90;;;18.75;100.00;98297.69;5211051;28;20224;-63
2021/07/18 00:42:59;;;;;;;32.00;19.02;;;17.80;99.90;;;18.64;100.00;98294.69;5214177;28;20197;-63
2021/07/18 00:45:32;;;;;;;31.77;18.73;;;17.70;99.90;;;18.67;100.00;98299.09;5224495;28;20687;-63
2021/07/18 00:48:07;;;;;;;32.05;19.27;;;17.60;99.90;;;18.59;100.00;98291.06;5226858;28;20202;-63
2021/07/18 00:50:43;;;;;;;20.27;18.02;;;17.60;99.90;;;18.56;100.00;98296.16;5226138;28;20664;-63
2021/07/18 00:53:17;;;;;;;35.03;19.63;;;17.60;99.90;;;18.48;100.00;98284.66;5208750;28;20220;-63
2021/07/18 00:55:52;;;;;;;20.55;18.27;;;17.50;99.90;;;18.43;100.00;98289.72;5216692;28;20593;-63
2021/07/18 00:58:29;;;;;;;43.22;19.85;;;17.60;99.90;;;18.42;100.00;98290.53;5218200;28;20197;-63
2021/07/18 01:01:03;;;;;;;19.83;17.75;;;17.50;99.90;;;18.38;100.00;98280.91;5210616;28;20695;-63
2021/07/18 01:03:38;;;;;;;34.45;19.35;;;17.50;99.90;;;18.37;100.00;98288.59;5213127;28;20229;-63
2021/07/18 01:06:11;;;;;;;19.58;17.77;;;17.50;99.90;;;18.38;100.00;98286.09;5208095;28;20219;-63
2021/07/18 01:08:44;;;;;;;29.52;20.70;;;17.50;99.90;;;18.39;100.00;98295.59;5217836;28;20570;-63
2021/07/18 01:11:17;;;;;;;20.38;18.33;;;17.40;99.90;;;18.33;100.00;98292.81;5209549;28;20232;-63
2021/07/18 01:13:51;;;;;;;24.98;18.08;;;17.50;99.90;;;18.31;100.00;98284.09;5210576;28;20547;-63
2021/07/18 01:16:24;;;;;;;18.08;16.48;;;17.40;99.90;;;18.28;100.00;98284.00;5210646;28;20754;-63
2021/07/18 01:18:58;;;;;;;19.42;17.63;;;17.30;99.90;;;18.22;100.00;98282.09;5215363;28;20658;-63
2021/07/18 01:21:34;;;;;;;28.30;19.48;;;17.30;99.90;;;18.17;100.00;98291.44;5212310;28;20237;-63
2021/07/18 01:24:09;;;;;;;18.30;16.65;;;17.30;99.90;;;18.18;100.00;98292.31;5226968;28;20634;-64
2021/07/18 01:26:42;;;;;;;41.67;17.95;;;17.30;99.90;;;18.12;100.00;98298.16;5226883;28;20216;-63
2021/07/18 01:29:15;;;;;;;73.72;22.65;;;17.20;99.90;;;18.06;100.00;98290.19;5227456;28;20208;-63
2021/07/18 01:31:49;;;;;;;19.98;17.92;;;17.20;99.90;;;18.08;100.00;98295.41;5227322;28;20201;-63
2021/07/18 01:34:22;;;;;;;19.75;17.00;;;17.20;99.90;;;18.14;100.00;98299.09;5227206;28;20292;-63
2021/07/18 01:36:55;;;;;;;18.58;16.65;;;17.10;99.90;;;18.20;100.00;98298.44;5207089;28;20218;-63
2021/07/18 01:39:30;;;;;;;34.85;19.58;;;17.20;99.90;;;18.00;100.00;98298.63;5214105;28;20217;-63
2021/07/18 01:42:03;;;;;;;23.73;18.65;;;17.10;99.90;;;18.00;100.00;98293.44;5208341;28;20296;-63
2021/07/18 01:44:36;;;;;;;19.92;17.33;;;17.10;99.90;;;18.02;100.00;98286.59;5219001;28;20202;-63
2021/07/18 01:47:10;;;;;;;30.52;19.20;;;17.00;99.90;;;18.02;100.00;98294.34;5226110;28;20213;-63
2021/07/18 01:49:43;;;;;;;31.08;19.63;;;17.00;99.90;;;17.98;100.00;98284.75;5210570;28;20197;-63
2021/07/18 01:52:17;;;;;;;32.65;17.20;;;17.10;99.90;;;17.90;100.00;98291.34;5220211;28;20201;-63
2021/07/18 01:54:55;;;;;;;33.67;17.98;;;17.10;99.90;;;17.89;100.00;98297.34;5216339;28;20201;-63
2021/07/18 01:57:28;;;;;;;18.98;15.43;;;16.90;99.90;;;17.82;100.00;98292.78;5206995;28;20240;-63
2021/07/18 02:00:01;;;;;;;34.15;17.52;;;16.90;99.90;;;17.79;100.00;98296.13;5207267;28;20253;-63
2021/07/18 02:02:34;;;;;;;16.90;14.98;;;16.90;99.90;;;17.80;100.00;98294.44;5207221;28;20212;-63
2021/07/18 02:05:09;;;;;;;29.65;15.65;;;16.90;99.90;;;17.78;100.00;98301.25;5212998;28;20296;-63
2021/07/18 02:07:43;;;;;;;21.17;16.00;;;16.90;99.90;;;17.78;100.00;98290.91;5224283;28;20276;-62
2021/07/18 02:10:20;;;;;;;25.67;13.85;;;16.80;99.90;;;17.69;100.00;98290.56;5208229;28;20202;-61
2021/07/18 02:12:53;;;;;;;14.52;13.38;;;16.70;99.90;;;17.64;100.00;98299.84;5211955;28;20200;-62
2021/07/18 02:15:26;;;;;;;45.15;14.05;;;16.70;99.90;;;17.64;100.00;98292.97;5206785;28;20252;-62
2021/07/18 02:17:59;;;;;;;13.63;12.35;;;16.60;99.90;;;17.55;100.00;98298.69;5219374;28;20283;-63
2021/07/18 02:20:33;;;;;;;16.75;12.88;;;16.50;99.90;;;17.46;100.00;98305.25;5207138;28;20228;-63
2021/07/18 02:23:06;;;;;;;14.48;13.35;;;16.50;99.90;;;17.44;100.00;98301.72;5206959;28;20260;-62
2021/07/18 02:25:40;;;;;;;19.00;13.45;;;16.50;99.90;;;17.46;100.00;98303.53;5214975;28;20224;-62
2021/07/18 02:28:13;;;;;;;21.08;13.70;;;16.50;99.90;;;17.37;100.00;98298.03;5223370;28;20199;-63
2021/07/18 02:30:47;;;;;;;21.30;14.20;;;16.40;99.90;;;17.27;100.00;98307.13;5225565;28;20205;-63
2021/07/18 02:33:20;;;;;;;43.70;16.98;;;16.40;99.90;;;17.20;100.00;98302.56;5215196;28;20661;-62
2021/07/18 02:35:53;;;;;;;19.23;14.95;;;16.40;99.90;;;17.23;100.00;98304.38;5210632;28;20312;-63
2021/07/18 02:38:26;;;;;;;15.52;14.20;;;16.40;99.90;;;17.26;100.00;98312.25;5207807;28;20687;-63
2021/07/18 02:41:00;;;;;;;32.83;15.00;;;16.40;99.90;;;17.24;100.00;98311.28;5226273;28;20213;-63
2021/07/18 02:43:34;;;;;;;28.40;12.90;;;16.30;99.90;;;17.09;100.00;98302.13;5213022;28;20254;-62
2021/07/18 02:46:07;;;;;;;16.60;12.80;;;16.10;99.90;;;17.08;100.00;98310.72;5225782;28;20585;-63
2021/07/18 02:48:40;;;;;;;14.70;13.32;;;16.10;99.90;;;17.08;100.00;98309.81;5217955;28;20324;-62
2021/07/18 02:51:13;;;;;;;36.03;13.40;;;16.20;99.90;;;17.01;100.00;98303.53;5208443;28;20282;-62
2021/07/18 02:53:46;;;;;;;21.52;12.80;;;16.10;99.90;;;17.01;100.00;98310.41;5206224;28;20227;-63
2021/07/18 02:56:21;;;;;;;36.40;15.35;;;16.10;99.90;;;16.98;100.00;98308.59;5213329;28;20216;-62
2021/07/18 02:58:54;;;;;;;14.50;13.15;;;16.10;99.90;;;16.96;100.00;98310.22;5226056;28;20283;-62
2021/07/18 03:01:27;;;;;;;14.02;12.65;;;16.10;99.90;;;16.94;100.00;98311.88;5219636;28;20693;-62
2021/07/18 03:04:00;;;;;;;28.92;14.27;;;16.00;99.90;;;16.96;100.00;98305.06;5225651;28;20208;-63
2021/07/18 03:06:33;;;;;;;28.33;13.23;;;16.10;99.90;;;17.03;100.00;98306.19;5221360;28;20251;-62
2021/07/18 03:09:06;;;;;;;12.85;11.85;;;16.10;99.90;;;17.03;100.00;98307.06;5226129;28;20207;-61
2021/07/18 03:11:40;;;;;;;14.93;12.40;;;16.10;99.90;;;17.03;100.00;98303.63;5214914;28;20226;-62
2021/07/18 03:14:15;;;;;;;24.92;13.27;;;16.10;99.90;;;16.92;100.00;98298.03;5206857;28;20730;-63
2021/07/18 03:16:49;;;;;;;30.77;12.20;;;16.00;99.90;;;16.93;100.00;98299.78;5220474;28;20239;-62
2021/07/18 03:19:22;;;;;;;10.95;10.05;;;16.00;99.90;;;16.98;100.00;98306.00;5225183;28;20783;-62
2021/07/18 03:21:55;;;;;;;10.30;9.18;;;16.00;99.90;;;16.99;100.00;98304.28;5215865;28;20223;-63
2021/07/18 03:24:29;;;;;;;10.15;9.35;;;16.00;99.90;;;16.94;100.00;98311.88;5223698;28;20602;-63
2021/07/18 03:27:05;;;;;;;9.65;8.93;;;15.90;99.90;;;16.95;100.00;98307.59;5210668;28;20760;-63
2021/07/18 03:29:38;;;;;;;10.63;9.63;;;16.00;99.90;;;16.95;100.00;98308.47;5205324;28;20204;-62
2021/07/18 03:32:11;;;;;;;9.05;8.40;;;15.90;99.90;;;16.93;100.00;98320.44;5221488;28;20197;-62
2021/07/18 03:34:44;;;;;;;8.98;8.38;;;16.00;99.90;;;16.89;100.00;98324.59;5214725;28;20198;-62
2021/07/18 03:37:17;;;;;;;13.55;8.88;;;15.90;99.90;;;16.85;100.00;98327.91;5204898;28;20216;-62
2021/07/18 03:39:50;;;;;;;9.88;9.07;;;15.80;99.90;;;16.91;100.00;98329.81;5214704;28;20204;-64
2021/07/18 03:42:25;;;;;;;10.65;9.85;;;15.80;99.90;;;16.84;100.00;98332.97;5212297;28;20232;-60
2021/07/18 03:44:58;;;;;;;10.45;9.65;;;15.80;99.90;;;16.84;100.00;98335.56;5214162;28;20200;-62
2021/07/18 03:47:31;;;;;;;11.10;10.10;;;15.80;99.90;;;16.85;100.00;98342.47;5205069;28;20271;-62
2021/07/18 03:50:08;;;;;;;10.77;9.98;;;15.90;99.90;;;16.84;100.00;98335.56;5216724;28;20837;-62
2021/07/18 03:52:41;;;;;;;14.45;10.45;;;15.90;99.90;;;16.78;100.00;98331.03;5212712;28;20546;-63
2021/07/18 03:55:18;;;;;;;15.32;11.15;;;15.80;99.90;;;16.80;100.00;98329.41;5216249;28;20208;-63
2021/07/18 03:57:52;;;;;;;23.10;11.18;;;15.80;99.90;;;16.77;100.00;98328.38;5225044;28;20201;-62
2021/07/18 04:00:25;;;;;;;20.52;11.88;;;15.80;99.90;;;16.77;100.00;98333.53;5220446;28;20189;-62
2021/07/18 04:02:58;;;;;;;11.65;10.48;;;15.70;99.90;;;16.67;100.00;98330.56;5222487;28;20193;-62
2021/07/18 04:05:32;;;;;;;12.15;10.20;;;15.80;99.90;;;16.66;100.00;98325.34;5210527;28;20224;-62
2021/07/18 04:08:05;;;;;;;17.33;10.20;;;15.70;99.90;;;16.58;100.00;98342.22;5224729;28;20190;-63
2021/07/18 04:10:41;;;;;;;19.35;10.00;;;15.60;99.90;;;16.51;100.00;98338.50;5211853;28;20198;-62
2021/07/18 04:13:15;;;;;;;10.45;9.43;;;15.50;99.90;;;16.48;100.00;98340.06;5210302;28;20193;-62
2021/07/18 04:15:48;;;;;;;31.77;9.88;;;15.50;99.90;;;16.33;100.00;98345.47;5211302;28;20278;-62
2021/07/18 04:18:21;;;;;;;10.52;9.35;;;15.40;99.90;;;16.37;100.00;98357.69;5224648;28;20283;-63
2021/07/18 04:20:54;;;;;;;61.40;11.48;;;15.40;99.90;;;16.35;100.00;98356.75;5209090;28;20267;-63
2021/07/18 04:23:28;;;;;;;9.60;8.80;;;15.40;99.90;;;16.31;100.00;98353.16;5216079;28;20243;-64
2021/07/18 04:26:01;;;;;;;24.83;11.52;;;15.30;99.90;;;16.35;100.00;98351.59;5217345;28;20215;-63
2021/07/18 04:28:36;;;;;;;16.73;9.23;;;15.40;99.90;;;16.37;100.00;98345.69;5234064;28;20201;-63
2021/07/18 04:31:09;;;;;;;12.63;10.90;;;15.40;99.90;;;16.41;100.00;98349.25;5212105;28;20193;-64
2021/07/18 04:33:43;;;;;;;30.10;10.30;;;15.50;99.90;;;16.44;100.00;98354.53;5207553;28;20202;-63
2021/07/18 04:36:16;;;;;;;52.40;10.93;;;15.40;99.90;;;16.43;100.00;98353.66;5222577;28;20308;-64
2021/07/18 04:38:49;;;;;;;12.30;9.70;;;15.50;99.90;;;16.48;100.00;98355.53;5219726;28;20662;-63
2021/07/18 04:41:22;;;;;;;11.38;9.05;;;15.50;99.90;;;16.53;100.00;98354.91;5216970;28;20217;-63
2021/07/18 04:43:57;;;;;;;24.77;9.77;;;15.50;99.90;;;16.55;100.00;98353.28;5218205;28;20288;-63
2021/07/18 04:46:30;;;;;;;9.45;8.55;;;15.40;99.90;;;16.67;100.00;98351.22;5206844;28;20221;-63
2021/07/18 04:49:04;;;;;;;15.25;9.27;;;15.50;99.90;;;16.72;100.00;98343.66;5220872;28;20197;-63
2021/07/18 04:51:37;;;;;;;9.98;8.98;;;15.50;99.90;;;16.70;100.00;98353.03;5216656;28;20208;-63
2021/07/18 04:54:10;;;;;;;11.32;8.82;;;15.40;99.90;;;16.71;100.00;98344.50;5217988;28;20198;-64
2021/07/18 04:56:43;;;;;;;10.98;8.57;;;15.50;99.90;;;16.71;100.00;98359.06;5225676;28;20225;-64
2021/07/18 04:59:18;;;;;;;9.15;8.30;;;15.50;99.90;;;16.59;100.00;98356.88;5219058;28;20239;-64
2021/07/18 05:01:51;;;;;;;12.85;8.55;;;15.40;99.90;;;16.65;100.00;98360.63;5225212;28;20227;-63
2021/07/18 05:04:24;;;;;;;9.43;8.45;;;15.50;99.90;;;16.63;100.00;98361.38;5225111;28;20664;-63
2021/07/18 05:06:57;;;;;;;9.95;8.18;;;15.40;99.90;;;16.68;100.00;98367.56;5219429;28;20222;-64
2021/07/18 05:09:31;;;;;;;12.25;9.55;;;15.50;99.90;;;16.71;100.00;98359.97;5222564;28;20193;-64
2021/07/18 05:12:05;;;;;;;15.55;9.70;;;15.60;99.90;;;16.75;100.00;98361.84;5223705;28;20199;-63
2021/07/18 05:14:42;;;;;;;9.80;8.88;;;15.60;99.90;;;16.84;100.00;98357.09;5213097;28;20255;-63
2021/07/18 05:17:15;;;;;;;10.35;9.23;;;15.70;99.90;;;16.98;100.00;98354.19;5221039;28;20734;-63
2021/07/18 05:19:48;;;;;;;9.75;8.75;;;15.80;99.90;;;17.08;100.00;98362.38;5226863;28;20207;-63
2021/07/18 05:22:21;;;;;;;9.18;8.38;;;15.80;99.90;;;17.28;100.00;98370.91;5224774;28;20217;-63
2021/07/18 05:24:54;;;;;;;26.58;8.10;;;16.00;99.90;;;17.11;98.98;98364.16;5208536;28;20198;-63
2021/07/18 05:27:28;;;;;;;8.80;8.20;;;15.80;99.90;;;17.38;100.00;98363.50;5209815;28;20289;-62
2021/07/18 05:30:03;;;;;;;8.32;7.72;;;16.00;99.90;;;17.69;98.89;98361.25;5207919;28;20204;-64
2021/07/18 05:32:37;;;;;;;8.25;7.55;;;16.20;99.90;;;17.89;98.13;98361.13;5226824;28;20578;-64
2021/07/18 05:35:11;;;;;;;7.63;7.03;;;16.30;99.90;;;18.10;97.76;98367.06;5216487;28;20685;-64
2021/07/18 05:37:45;;;;;;;8.45;7.85;;;16.50;99.90;;;18.31;95.89;98373.81;5210299;28;20197;-63
2021/07/18 05:40:18;;;;;;;8.93;8.07;;;16.50;99.90;;;18.49;92.74;98371.00;5217459;28;20197;-63
2021/07/18 05:42:51;;;;;;;8.57;7.45;;;16.50;99.90;;;18.45;92.72;98363.09;5219389;28;20213;-63
2021/07/18 05:45:25;;;;;;;8.77;7.97;;;16.60;99.90;;;18.63;93.26;98364.59;5217484;28;20224;-63
2021/07/18 05:47:59;;;;;;;8.13;7.45;;;16.80;99.90;;;18.95;92.82;98355.31;5223023;28;20203;-63
2021/07/18 05:50:32;;;;;;;7.63;7.13;;;17.10;99.90;;;19.42;90.75;98352.41;5225399;28;20739;-63
2021/07/18 05:53:05;;;;;;;8.82;8.13;;;17.40;99.90;;;19.96;87.56;98362.66;5219678;28;20932;-63
2021/07/18 05:55:38;;;;;;;8.30;7.57;;;17.70;99.90;;;20.44;87.19;98365.72;5209332;28;20304;-64
2021/07/18 05:58:11;;;;;;;7.28;6.57;;;18.30;99.90;;;21.05;81.85;98363.78;5212381;28;20569;-64
2021/07/18 06:00:45;;;;;;;6.63;6.13;;;18.80;99.90;;;21.64;77.54;98362.56;5222140;28;20208;-63
2021/07/18 06:03:19;;;;;;;7.13;6.53;;;19.10;99.90;;;21.93;75.37;98360.53;5211307;28;20672;-63
2021/07/18 06:05:52;;;;;;;7.35;6.75;;;19.50;99.90;;;21.85;76.99;98362.09;5205177;28;20218;-63
2021/07/18 06:08:25;;;;;;;6.55;6.07;;;19.60;99.90;;;22.41;73.90;98364.97;5216821;28;20212;-63
2021/07/18 06:10:58;;;;;;;6.50;6.00;;;19.90;99.90;;;22.90;71.25;98360.59;5212771;28;20680;-64
2021/07/18 06:13:31;;;;;;;6.50;6.00;;;20.10;99.90;;;23.09;68.61;98357.47;5205993;28;20236;-65
2021/07/18 06:16:06;;;;;;;6.03;5.63;;;20.20;99.90;;;23.37;67.32;98363.94;5221206;28;20255;-67
2021/07/18 06:18:39;;;;;;;6.20;5.40;;;20.40;99.90;;;23.54;66.92;98365.94;5219757;28;20208;-66
2021/07/18 06:21:12;;;;;;;5.50;5.10;;;20.40;99.90;;;24.01;66.06;98361.34;5220556;28;20197;-62
2021/07/18 06:23:46;;;;;;;5.72;5.25;;;20.80;99.90;;;24.23;63.90;98356.34;5207977;28;20217;-60
2021/07/18 06:26:19;;;;;;;5.53;4.97;;;20.90;99.90;;;24.58;63.32;98346.31;5216993;28;20223;-62
2021/07/18 06:28:52;;;;;;;5.35;4.85;;;21.20;99.90;;;24.85;62.86;98357.84;5214487;28;20196;-62
2021/07/18 06:31:31;;;;;;;6.05;4.82;;;21.40;99.90;;;25.17;62.12;98358.13;5205336;28;20601;-62
2021/07/18 06:34:05;;;;;;;5.28;4.88;;;21.80;99.90;;;25.42;61.35;98359.16;5223002;28;20203;-63
2021/07/18 06:36:38;;;;;;;5.55;5.05;;;21.80;99.90;;;25.68;59.38;98350.56;5215738;28;20224;-62
2021/07/18 06:39:11;;;;;;;4.82;4.30;;;22.10;99.90;;;25.88;58.45;98359.44;5224334;28;20197;-63
2021/07/18 06:41:44;;;;;;;5.22;4.50;;;22.40;99.90;;;26.18;57.56;98363.00;5225846;28;20207;-63
2021/07/18 06:44:17;;;;;;;5.22;4.78;;;22.60;99.90;;;26.06;56.80;98362.09;5222323;28;20220;-63
2021/07/18 06:46:51;;;;;;;5.43;4.57;;;22.80;99.90;;;26.55;56.06;98360.50;5225010;28;20231;-63
2021/07/18 06:49:24;;;;;;;5.88;4.22;;;22.90;99.90;;;26.82;54.77;98355.28;5211992;28;20205;-64
2021/07/18 06:51:58;;;;;;;4.57;4.20;;;23.20;99.90;;;26.93;54.07;98360.56;5212883;28;20547;-62
2021/07/18 06:54:31;;;;;;;3.67;3.38;;;23.30;99.90;;;26.98;53.65;98357.91;5205873;28;20255;-63
2021/07/18 06:57:05;;;;;;;4.20;3.83;;;23.60;99.90;;;27.20;52.27;98353.56;5214821;28;20834;-61
2021/07/18 06:59:38;;;;;;;3.78;3.22;;;23.90;99.90;;;27.41;52.45;98353.50;5212537;28;20201;-63
2021/07/18 07:02:13;;;;;;;3.72;3.42;;;24.20;99.90;;;27.51;52.67;98362.25;5222167;28;20197;-62
2021/07/18 07:04:46;;;;;;;3.72;3.42;;;24.30;99.90;;;27.60;51.02;98370.09;5210036;28;20562;-63
2021/07/18 07:07:19;;;;;;;3.72;3.35;;;24.70;99.90;;;28.00;50.48;98364.72;5221226;28;20189;-63
2021/07/18 07:09:52;;;;;;;4.72;3.05;;;24.60;99.90;;;28.21;48.49;98372.50;5216542;28;20208;-63
2021/07/18 07:12:25;;;;;;;3.55;2.95;;;24.70;99.90;;;28.14;48.65;98370.78;5207225;28;20202;-63
2021/07/18 07:15:00;;;;;;;4.75;2.95;;;25.10;99.90;;;28.34;47.56;98365.44;5231084;28;20206;-63
2021/07/18 07:17:35;;;;;;;3.40;3.00;;;25.20;99.90;;;28.53;47.80;98366.22;5221823;28;20615;-64
2021/07/18 07:20:11;;;;;;;2.97;2.50;;;25.50;99.90;;;28.84;46.67;98372.13;5225691;28;20211;-64
2021/07/18 07:22:44;;;;;;;3.70;2.70;;;25.60;99.90;;;28.70;46.27;98363.47;5224217;28;20219;-64
2021/07/18 07:25:17;;;;;;;4.00;2.80;;;25.40;99.90;;;28.83;45.91;98364.25;5218565;28;20222;-64
2021/07/18 07:27:50;;;;;;;3.10;2.80;;;25.50;99.90;;;28.86;46.82;98370.34;5206910;28;20205;-66
2021/07/18 07:30:23;;;;;;;3.88;2.72;;;25.60;99.90;;;28.72;46.53;98370.47;5204506;28;20225;-66
2021/07/18 07:32:58;;;;;;;3.53;2.65;;;25.60;99.90;;;28.88;46.12;98367.72;5204933;28;20553;-66
2021/07/18 07:35:31;;;;;;;2.92;2.60;;;25.80;99.90;;;29.10;45.57;98364.06;5205283;28;20224;-66
2021/07/18 07:38:05;;;;;;;4.38;2.80;;;25.90;99.90;;;29.30;46.48;98370.88;5223149;28;20193;-66
2021/07/18 07:40:38;;;;;;;4.55;2.63;;;26.00;99.90;;;29.36;44.78;98371.72;5215238;28;20195;-66
2021/07/18 07:43:11;;;;;;;3.58;2.45;;;26.30;99.90;;;29.35;43.64;98369.06;5208889;28;20388;-66
2021/07/18 07:45:44;;;;;;;3.28;2.50;;;26.10;99.90;;;29.55;44.83;98368.88;5205143;28;20221;-66
2021/07/18 07:48:19;;;;;;;3.70;2.53;;;26.20;99.90;;;29.87;43.15;98363.25;5208341;28;20679;-66
2021/07/18 07:50:52;;;;;;;3.63;2.63;;;26.30;99.90;;;30.03;43.25;98363.94;5204673;28;20197;-66
2021/07/18 07:53:26;;;;;;;4.13;2.83;;;26.60;99.90;;;29.47;43.94;98347.00;5218063;28;20195;-66
2021/07/18 07:56:00;;;;;;;3.88;2.50;;;26.40;99.90;;;29.84;43.47;98355.38;5210068;28;20244;-66
2021/07/18 07:58:33;;;;;;;4.68;2.85;;;26.60;99.90;;;30.15;42.50;98347.09;5216428;28;20645;-66
2021/07/18 08:01:07;;;;;;;3.72;2.92;;;26.80;99.90;;;30.49;42.76;98347.50;5213086;28;20197;-66
2021/07/18 08:03:41;;;;;;;4.38;3.20;;;27.00;99.90;;;30.67;41.53;98348.97;5204426;28;20755;-65
2021/07/18 08:06:14;;;;;;;4.38;2.65;;;26.90;99.90;;;30.55;41.29;98346.53;5207609;28;20248;-66
2021/07/18 08:08:47;;;;;;;4.30;2.60;;;27.10;99.90;;;30.59;42.16;98343.84;5204267;28;20193;-65
2021/07/18 08:11:20;;;;;;;4.32;2.63;;;27.30;99.90;;;30.49;42.70;98343.09;5214455;28;20204;-65
2021/07/18 08:13:54;;;;;;;5.45;2.70;;;27.50;99.90;;;30.97;40.52;98345.00;5209664;28;20197;-65
2021/07/18 08:16:27;;;;;;;4.18;2.60;;;27.70;98.50;;;31.00;40.63;98349.38;5211575;28;20216;-65
2021/07/18 08:19:01;;;;;;;5.72;2.95;;;27.80;98.40;;;30.97;40.39;98353.81;5208162;28;20207;-66
2021/07/18 08:21:35;;;;;;;4.53;2.58;;;28.00;97.80;;;30.49;39.98;98343.09;5212518;28;20193;-66
2021/07/18 08:24:14;;;;;;;3.08;2.40;;;27.60;96.90;;;30.06;42.02;98342.81;5204094;28;20213;-66
2021/07/18 08:26:47;;;;;;;4.13;2.72;;;27.50;97.80;;;29.70;41.73;98339.72;5216499;28;20229;-66
2021/07/18 08:29:20;;;;;;;3.97;2.60;;;27.50;96.70;;;29.76;42.79;98342.31;5219753;28;20284;-66
2021/07/18 08:31:56;;;;;;;3.90;2.90;;;27.70;98.00;;;29.80;42.32;98348.41;5217511;28;20201;-66
2021/07/18 08:34:32;;;;;;;4.28;2.40;;;28.00;96.70;;;29.78;42.85;98334.38;5219437;28;20205;-66
2021/07/18 08:37:05;;;;;;;3.35;2.60;;;28.00;96.90;;;29.42;44.09;98326.00;5210446;28;20224;-66
2021/07/18 08:39:38;;;;;;;3.72;3.00;;;27.90;97.70;;;29.41;43.71;98318.97;5215602;28;20292;-66
2021/07/18 08:42:15;;;;;;;4.35;2.42;;;27.90;96.90;;;29.26;42.06;98327.03;5211431;28;20193;-66
2021/07/18 08:44:49;;;;;;;6.03;3.33;;;27.80;95.90;;;28.58;45.78;98330.22;5223201;28;20696;-66
2021/07/18 08:47:22;;;;;;;5.47;3.08;;;27.60;97.30;;;28.88;42.36;98320.34;5217831;28;20203;-66
2021/07/18 08:49:56;;;;;;;4.75;2.97;;;27.60;95.40;;;29.09;44.26;98324.56;5217029;28;20194;-65
2021/07/18 08:52:30;;;;;;;3.45;2.58;;;27.70;97.40;;;29.16;44.33;98316.59;5217269;28;20196;-65
2021/07/18 08:55:09;;;;;;;4.65;2.90;;;27.70;97.50;;;29.34;43.93;98318.16;5207182;28;20251;-65
2021/07/18 08:57:43;;;;;;;3.40;2.88;;;27.90;96.70;;;29.11;43.64;98310.50;5208106;28;20288;-66
2021/07/18 09:00:16;;;;;;;4.60;2.97;;;27.80;96.80;;;29.25;45.06;98313.00;5222432;28;20200;-65
2021/07/18 09:02:50;;;;;;;3.40;2.78;;;28.10;97.40;;;29.48;43.41;98317.16;5218315;28;20654;-65
2021/07/18 09:05:25;;;;;;;3.58;2.92;;;28.40;95.40;;;29.41;43.28;98306.66;5211452;28;20236;-65
2021/07/18 09:07:58;;;;;;;4.40;2.80;;;28.30;96.00;;;29.22;44.63;98322.66;5214256;28;20204;-66
2021/07/18 09:10:32;;;;;;;4.50;2.90;;;28.20;96.20;;;29.06;45.88;98312.31;5212239;28;20215;-65
2021/07/18 09:13:08;;;;;;;5.43;2.55;;;28.10;96.90;;;29.13;43.84;98306.09;5223661;28;20653;-65
2021/07/18 09:15:44;;;;;;;3.45;2.88;;;28.40;95.10;;;29.01;44.15;98307.94;5226598;28;20326;-66
2021/07/18 09:18:21;;;;;;;4.15;2.67;;;28.30;96.30;;;29.16;43.99;98307.84;5219237;28;20204;-65
2021/07/18 09:20:57;;;;;;;2.78;2.58;;;28.40;95.20;;;29.09;44.78;98316.66;5217273;28;20619;-65
2021/07/18 09:23:31;;;;;;;3.13;2.72;;;28.30;95.90;;;29.03;44.08;98317.59;5215745;28;20197;-65
2021/07/18 09:26:22;;;;;;;3.83;2.90;;;28.20;95.00;;;29.11;44.26;98317.53;5215392;28;20300;-66
2021/07/18 09:28:58;;;;;;;4.05;2.83;;;28.30;95.70;;;28.81;42.18;98303.72;5218332;28;20295;-65
2021/07/18 09:31:39;;;;;;;4.25;2.60;;;28.00;94.30;;;28.69;43.19;98303.84;5214552;28;20201;-65
2021/07/18 09:34:13;;;;;;;3.67;2.60;;;28.00;94.70;;;28.61;43.23;98298.63;5219088;28;20682;-65
2021/07/18 09:36:48;;;;;;;3.08;2.88;;;28.00;93.90;;;28.57;44.92;98302.19;5221974;28;20216;-65
2021/07/18 09:39:21;;;;;;;2.85;2.63;;;28.00;95.10;;;28.54;44.75;98302.19;5222119;28;20188;-65
2021/07/18 09:41:57;;;;;;;4.75;2.95;;;28.10;94.70;;;28.67;44.78;98298.59;5221672;28;20291;-65
2021/07/18 09:44:42;;;;;;;3.63;2.70;;;28.00;95.30;;;28.67;42.74;98295.06;5208491;28;20251;-65
2021/07/18 09:47:15;;;;;;;4.47;3.20;;;28.20;94.00;;;28.60;43.64;98288.13;5222274;28;20212;-65
2021/07/18 09:49:49;;;;;;;4.13;3.08;;;28.10;94.30;;;28.49;43.13;98298.72;5212579;28;20207;-65
2021/07/18 09:52:27;;;;;;;2.55;2.35;;;27.90;94.20;;;28.42;44.56;98284.75;5207099;28;20194;-65
2021/07/18 09:55:00;;;;;;;4.05;2.60;;;27.80;94.70;;;28.37;46.30;98288.28;5222510;28;20199;-65
2021/07/18 09:57:40;;;;;;;7.00;3.20;;;27.80;95.70;;;28.48;45.02;98294.38;5220147;28;20670;-65
2021/07/18 10:00:14;;;;;;;3.78;2.83;;;28.00;95.30;;;28.61;45.75;98281.97;5222175;28;20196;-65
2021/07/18 10:02:48;;;;;;;3.13;2.60;;;28.20;95.60;;;28.82;43.57;98280.94;5216956;28;20197;-65
2021/07/18 10:05:29;;;;;;;4.13;2.70;;;28.20;94.30;;;28.59;43.38;98282.00;5225899;28;20754;-65
2021/07/18 10:08:09;;;;;;;2.83;2.63;;;28.10;94.30;;;28.46;43.01;98275.06;5220831;28;20284;-65
2021/07/18 10:10:42;;;;;;;3.65;2.60;;;27.90;93.80;;;28.36;42.13;98284.78;5212086;28;20194;-65
2021/07/18 10:13:15;;;;;;;3.70;2.70;;;27.80;92.80;;;28.18;42.09;98277.88;5217987;28;20193;-65
2021/07/18 10:15:49;;;;;;;3.28;2.80;;;27.80;92.50;;;28.25;44.53;98289.22;5210878;28;20595;-65
2021/07/18 10:18:22;;;;;;;4.00;2.88;;;27.70;94.30;;;28.19;43.66;98284.88;5205980;28;20220;-65
2021/07/18 10:20:55;;;;;;;2.70;2.50;;;27.70;93.90;;;28.14;45.03;98283.16;5212355;28;20204;-65
2021/07/18 10:23:30;;;;;;;3.13;2.72;;;27.60;94.60;;;28.00;43.93;98283.25;5221614;28;20582;-65
2021/07/18 10:26:24;;;;;;;3.15;2.40;;;27.50;93.70;;;27.89;43.64;98287.69;5215249;28;20312;-65
2021/07/18 10:28:58;;;;;;;3.72;2.63;;;27.40;93.70;;;27.69;44.41;98285.13;5214005;28;20203;-65
2021/07/18 10:31:36;;;;;;;2.92;2.63;;;27.20;93.80;;;27.65;45.09;98283.41;5207354;28;20287;-65
2021/07/18 10:34:10;;;;;;;2.78;2.58;;;27.20;94.30;;;27.63;43.83;98291.28;5216116;28;20309;-65
2021/07/18 10:36:44;;;;;;;4.35;3.03;;;27.20;93.30;;;27.40;42.34;98281.72;5214470;28;20213;-65
2021/07/18 10:39:36;;;;;;;3.53;2.65;;;27.00;91.80;;;27.37;42.39;98283.50;5213465;28;20532;-65